Time;durP1;ratioP1;P1;durP2;ratioP2;P2;SDS_P1;SDS_P2;PMS_P1;PMS_P2;Temp;Humidity;BMP_temperature;BMP_pressure;BME280_temperature;BME280_humidity;BME280_pressure;Samples;Min_cycle;Max_cycle;Signal;HPM_P1;HPM_P2
2022/06/08 00:02:04;;;;;;;;;;;12.10;99.90;;;;;;5089916;27;37014;-50
2022/06/08 00:04:31;;;;;;;;;;;12.10;99.90;;;;;;5090464;27;36753;-48
2022/06/08 00:06:58;;;;;;;;;;;12.10;99.90;;;;;;5090575;28;35990;-51
2022/06/08 00:09:26;;;;;;;;;;;12.10;99.90;;;;;;5089277;27;38327;-47
2022/06/08 00:11:56;;;;;;;;;;;12.10;99.90;;;;;;5090230;27;37224;-49
2022/06/08 00:14:23;;;;;;;;;;;12.00;99.90;;;;;;5090490;28;37529;-48
2022/06/08 00:16:50;;;;;;;;;;;12.00;99.90;;;;;;5089968;27;37882;-46
2022/06/08 00:19:17;;;;;;;;;;;12.00;99.90;;;;;;5089653;28;37666;-51
2022/06/08 00:21:44;;;;;;;;;;;12.00;99.90;;;;;;5089473;27;36967;-52
2022/06/08 00:24:11;;;;;;;;;;;12.00;99.90;;;;;;5089942;27;35291;-52
2022/06/08 00:26:38;;;;;;;;;;;12.00;99.90;;;;;;5089404;27;39600;-48
2022/06/08 00:29:07;;;;;;;;;;;12.00;99.90;;;;;;5090289;27;36360;-51
2022/06/08 00:31:34;;;;;;;;;;;12.00;99.90;;;;;;5088874;27;36493;-51
2022/06/08 00:34:01;;;;;;;;;;;12.00;99.90;;;;;;5088818;27;36525;-48
2022/06/08 00:36:28;;;;;;;;;;;12.00;99.90;;;;;;5089556;27;37507;-50
2022/06/08 00:38:56;;;;;;;;;;;12.00;99.90;;;;;;5089479;27;38684;-52
2022/06/08 00:41:28;;;;;;;;;;;12.00;99.90;;;;;;5087902;27;37371;-52
2022/06/08 00:43:55;;;;;;;;;;;12.10;99.90;;;;;;5090211;27;36858;-49
2022/06/08 00:46:24;;;;;;;;;;;12.00;99.90;;;;;;5088459;27;38440;-52
2022/06/08 00:48:53;;;;;;;;;;;12.00;99.90;;;;;;5086311;27;37616;-52
2022/06/08 00:51:32;;;;;;;;;;;11.90;99.90;;;;;;5089606;27;36585;-48
2022/06/08 00:54:00;;;;;;;;;;;11.80;99.90;;;;;;5088851;28;36337;-48
2022/06/08 00:56:30;;;;;;;;;;;11.80;99.90;;;;;;5089951;27;38535;-48
2022/06/08 00:58:59;;;;;;;;;;;11.70;99.90;;;;;;5088676;27;39083;-50
2022/06/08 01:01:27;;;;;;;;;;;11.70;99.90;;;;;;5087455;28;38267;-51
2022/06/08 01:04:05;;;;;;;;;;;11.70;99.90;;;;;;5089195;27;37841;-48
2022/06/08 01:06:32;;;;;;;;;;;11.60;99.90;;;;;;5087836;27;38058;-52
2022/06/08 01:08:59;;;;;;;;;;;11.60;99.90;;;;;;5087550;27;36402;-48
2022/06/08 01:11:31;;;;;;;;;;;11.60;99.90;;;;;;5087903;27;37125;-51
2022/06/08 01:13:59;;;;;;;;;;;11.60;99.90;;;;;;5088736;27;36192;-47
2022/06/08 01:16:28;;;;;;;;;;;11.60;99.90;;;;;;5088198;27;38925;-51
2022/06/08 01:18:55;;;;;;;;;;;11.60;99.90;;;;;;5088006;27;37161;-49
2022/06/08 01:21:40;;;;;;;;;;;11.70;99.90;;;;;;5088804;27;35756;-52
2022/06/08 01:24:11;;;;;;;;;;;11.70;99.90;;;;;;5088514;27;36926;-51
2022/06/08 01:26:41;;;;;;;;;;;11.80;99.90;;;;;;5088205;27;37643;-48
2022/06/08 01:29:12;;;;;;;;;;;11.80;99.90;;;;;;5088577;27;37361;-48
2022/06/08 01:31:44;;;;;;;;;;;11.80;99.90;;;;;;5087796;27;36808;-51
2022/06/08 01:34:14;;;;;;;;;;;11.80;99.90;;;;;;5088590;28;35119;-50
2022/06/08 01:36:47;;;;;;;;;;;11.70;99.90;;;;;;5088113;27;38639;-48
2022/06/08 01:39:21;;;;;;;;;;;11.60;99.90;;;;;;5088087;27;36883;-48
2022/06/08 01:41:58;;;;;;;;;;;11.60;99.90;;;;;;5088199;27;37320;-51
2022/06/08 01:44:34;;;;;;;;;;;11.60;99.90;;;;;;5087762;27;37043;-51
2022/06/08 01:47:07;;;;;;;;;;;11.60;99.90;;;;;;5088614;27;36450;-52
2022/06/08 01:49:37;;;;;;;;;;;11.60;99.90;;;;;;5088078;27;37427;-48
2022/06/08 01:52:15;;;;;;;;;;;11.70;99.90;;;;;;5086964;27;37572;-48
2022/06/08 01:54:57;;;;;;;;;;;11.80;99.90;;;;;;5088967;27;36243;-52
2022/06/08 01:57:30;;;;;;;;;;;11.80;99.90;;;;;;5088124;27;39778;-51
2022/06/08 02:00:03;;;;;;;;;;;11.80;99.90;;;;;;5086603;28;38139;-51
2022/06/08 02:02:32;;;;;;;;;;;11.80;99.90;;;;;;5088415;27;37218;-47
2022/06/08 02:05:04;;;;;;;;;;;11.70;99.90;;;;;;5087708;27;36983;-49
2022/06/08 02:07:33;;;;;;;;;;;11.70;99.90;;;;;;5088011;27;38635;-47
2022/06/08 02:10:06;;;;;;;;;;;11.80;99.90;;;;;;5087480;28;37394;-51
2022/06/08 02:12:34;;;;;;;;;;;11.80;99.90;;;;;;5087852;27;37086;-51
2022/06/08 02:15:03;;;;;;;;;;;11.80;99.90;;;;;;5088059;27;36919;-52
2022/06/08 02:17:32;;;;;;;;;;;11.80;99.90;;;;;;5087101;27;37572;-51
2022/06/08 02:20:02;;;;;;;;;;;11.80;99.90;;;;;;5088706;28;36345;-52
2022/06/08 02:22:31;;;;;;;;;;;11.80;99.90;;;;;;5087622;27;36638;-51
2022/06/08 02:25:03;;;;;;;;;;;11.80;99.90;;;;;;5087871;27;37150;-49
2022/06/08 02:27:33;;;;;;;;;;;11.80;99.90;;;;;;5087241;27;37551;-49
2022/06/08 02:30:06;;;;;;;;;;;11.80;99.90;;;;;;5087438;27;37399;-48
2022/06/08 02:35:22;;;;;;;;;;;11.70;99.90;;;;;;5091555;28;37017;-50
2022/06/08 02:37:51;;;;;;;;;;;11.60;99.90;;;;;;5091038;27;36638;-50
2022/06/08 02:40:24;;;;;;;;;;;11.60;99.90;;;;;;5089654;27;36347;-49
2022/06/08 02:42:54;;;;;;;;;;;11.60;99.90;;;;;;5091729;27;38015;-51
2022/06/08 02:45:24;;;;;;;;;;;11.60;99.90;;;;;;5091393;27;37129;-52
2022/06/08 02:47:52;;;;;;;;;;;11.60;99.90;;;;;;5091296;28;37438;-50
2022/06/08 02:50:21;;;;;;;;;;;11.80;99.90;;;;;;5090453;27;39938;-48
2022/06/08 02:52:48;;;;;;;;;;;11.70;99.90;;;;;;5090919;27;36552;-50
2022/06/08 02:55:18;;;;;;;;;;;11.60;99.90;;;;;;5090220;27;36471;-51
2022/06/08 02:57:46;;;;;;;;;;;11.70;99.90;;;;;;5090622;27;37974;-50
2022/06/08 03:00:17;;;;;;;;;;;11.70;99.90;;;;;;5089892;27;38216;-49
2022/06/08 03:02:47;;;;;;;;;;;11.70;99.90;;;;;;5090522;28;36497;-50
2022/06/08 03:05:17;;;;;;;;;;;11.70;99.90;;;;;;5091749;27;36024;-52
2022/06/08 03:07:45;;;;;;;;;;;11.70;99.90;;;;;;5090406;27;39210;-49
2022/06/08 03:10:14;;;;;;;;;;;11.70;99.90;;;;;;5091101;28;37297;-48
2022/06/08 03:12:43;;;;;;;;;;;11.70;99.90;;;;;;5089670;27;37464;-51
2022/06/08 03:15:11;;;;;;;;;;;11.70;99.90;;;;;;5090810;27;37456;-49
2022/06/08 03:17:39;;;;;;;;;;;11.70;99.90;;;;;;5090012;27;38960;-52
2022/06/08 03:20:08;;;;;;;;;;;11.80;99.90;;;;;;5090598;28;38057;-48
2022/06/08 03:22:36;;;;;;;;;;;11.70;99.90;;;;;;5090049;27;37883;-50
2022/06/08 03:25:03;;;;;;;;;;;11.70;99.90;;;;;;5090004;28;34379;-50
2022/06/08 03:27:30;;;;;;;;;;;11.80;99.90;;;;;;5089602;28;37950;-51
2022/06/08 03:29:57;;;;;;;;;;;11.70;99.90;;;;;;5090051;27;39165;-51
2022/06/08 03:32:24;;;;;;;;;;;11.70;99.90;;;;;;5091043;27;36840;-50
2022/06/08 03:34:53;;;;;;;;;;;11.70;99.90;;;;;;5090566;27;37221;-50
2022/06/08 03:37:20;;;;;;;;;;;11.70;99.90;;;;;;5090857;27;39454;-51
2022/06/08 03:39:47;;;;;;;;;;;11.60;99.90;;;;;;5089530;27;37672;-49
2022/06/08 03:42:14;;;;;;;;;;;11.60;99.90;;;;;;5089318;27;37416;-53
2022/06/08 03:44:41;;;;;;;;;;;11.60;99.90;;;;;;5090426;27;35025;-51
2022/06/08 03:47:09;;;;;;;;;;;11.70;99.90;;;;;;5089717;27;38525;-47
2022/06/08 03:49:36;;;;;;;;;;;11.70;99.90;;;;;;5090471;27;37070;-51
2022/06/08 03:52:07;;;;;;;;;;;11.80;99.90;;;;;;5088800;27;36512;-51
2022/06/08 03:54:37;;;;;;;;;;;11.80;99.90;;;;;;5088908;27;36174;-50
2022/06/08 03:57:05;;;;;;;;;;;11.90;99.90;;;;;;5089155;28;38541;-51
2022/06/08 03:59:33;;;;;;;;;;;12.00;99.90;;;;;;5090698;28;38027;-49
2022/06/08 04:02:01;;;;;;;;;;;12.00;99.90;;;;;;5089470;27;38373;-50
2022/06/08 04:04:28;;;;;;;;;;;12.10;99.90;;;;;;5090263;27;37537;-49
2022/06/08 04:06:55;;;;;;;;;;;12.20;99.90;;;;;;5090023;28;36589;-51
2022/06/08 04:09:23;;;;;;;;;;;12.20;99.90;;;;;;5088274;27;38397;-50
2022/06/08 04:11:50;;;;;;;;;;;12.30;99.90;;;;;;5087628;27;37056;-49
2022/06/08 04:14:17;;;;;;;;;;;12.40;99.90;;;;;;5089529;28;36387;-50
2022/06/08 04:16:45;;;;;;;;;;;12.50;99.90;;;;;;5088820;27;38970;-48
2022/06/08 04:19:12;;;;;;;;;;;12.50;99.90;;;;;;5090062;28;38039;-50
2022/06/08 04:21:39;;;;;;;;;;;12.60;99.90;;;;;;5088459;27;38020;-50
2022/06/08 04:24:06;;;;;;;;;;;12.70;99.90;;;;;;5089512;27;37013;-51
2022/06/08 04:26:35;;;;;;;;;;;12.80;99.90;;;;;;5088954;27;39521;-49
2022/06/08 04:29:02;;;;;;;;;;;12.90;99.90;;;;;;5089148;27;36120;-48
2022/06/08 04:31:32;;;;;;;;;;;12.90;99.90;;;;;;5087635;27;36920;-49
2022/06/08 04:33:59;;;;;;;;;;;13.10;99.90;;;;;;5088933;28;36450;-51
2022/06/08 04:36:26;;;;;;;;;;;13.20;99.90;;;;;;5088809;27;38047;-48
2022/06/08 04:38:53;;;;;;;;;;;13.30;99.90;;;;;;5088443;27;37349;-50
2022/06/08 04:41:21;;;;;;;;;;;13.50;99.90;;;;;;5088290;27;36457;-50
2022/06/08 04:43:49;;;;;;;;;;;13.60;99.90;;;;;;5089121;27;36210;-51
2022/06/08 04:46:17;;;;;;;;;;;13.70;99.90;;;;;;5088307;27;37703;-51
2022/06/08 04:48:45;;;;;;;;;;;13.70;99.90;;;;;;5088270;27;38074;-52
2022/06/08 04:51:12;;;;;;;;;;;13.60;99.90;;;;;;5090110;27;37685;-51
2022/06/08 04:53:40;;;;;;;;;;;13.60;99.90;;;;;;5088442;27;37503;-48
2022/06/08 04:56:07;;;;;;;;;;;13.60;99.90;;;;;;5087622;27;37158;-50
2022/06/08 04:58:34;;;;;;;;;;;13.50;99.90;;;;;;5088750;27;38717;-48
2022/06/08 05:01:04;;;;;;;;;;;13.50;99.90;;;;;;5087537;27;37110;-48
2022/06/08 05:03:31;;;;;;;;;;;13.50;99.90;;;;;;5088320;28;36366;-49
2022/06/08 05:05:59;;;;;;;;;;;13.50;99.90;;;;;;5088069;27;38374;-50
2022/06/08 05:08:26;;;;;;;;;;;13.50;99.90;;;;;;5088550;28;36038;-48
2022/06/08 05:10:54;;;;;;;;;;;13.60;99.90;;;;;;5087923;27;37211;-52
2022/06/08 05:13:22;;;;;;;;;;;13.40;99.90;;;;;;5088573;27;36536;-47
2022/06/08 05:15:50;;;;;;;;;;;13.40;99.90;;;;;;5088005;27;38238;-52
2022/06/08 05:18:20;;;;;;;;;;;13.40;99.90;;;;;;5088306;27;36168;-52
2022/06/08 05:20:48;;;;;;;;;;;13.40;99.90;;;;;;5088174;27;36329;-48
2022/06/08 05:23:17;;;;;;;;;;;13.40;99.90;;;;;;5088957;27;36853;-49
2022/06/08 05:25:45;;;;;;;;;;;13.50;99.90;;;;;;5088214;27;38751;-49
2022/06/08 05:28:13;;;;;;;;;;;13.50;99.90;;;;;;5087655;27;38033;-48
2022/06/08 05:30:40;;;;;;;;;;;13.50;99.90;;;;;;5086027;27;38167;-50
2022/06/08 05:33:08;;;;;;;;;;;13.50;99.90;;;;;;5088526;27;35252;-51
2022/06/08 05:35:37;;;;;;;;;;;13.50;99.90;;;;;;5088070;27;38711;-51
2022/06/08 05:38:04;;;;;;;;;;;13.50;99.90;;;;;;5087023;28;36368;-47
2022/06/08 05:40:32;;;;;;;;;;;13.60;99.90;;;;;;5084482;27;36647;-51
2022/06/08 05:43:00;;;;;;;;;;;13.60;99.90;;;;;;5086778;27;36512;-52
2022/06/08 05:45:28;;;;;;;;;;;13.60;99.90;;;;;;5087589;27;38168;-50
2022/06/08 05:47:55;;;;;;;;;;;13.60;99.90;;;;;;5088186;27;36327;-50
2022/06/08 05:50:23;;;;;;;;;;;13.70;99.90;;;;;;5087822;27;37460;-47
2022/06/08 05:52:52;;;;;;;;;;;13.70;99.90;;;;;;5088373;27;36467;-49
2022/06/08 05:55:19;;;;;;;;;;;13.70;99.90;;;;;;5089105;27;37951;-47
2022/06/08 05:57:46;;;;;;;;;;;13.80;99.90;;;;;;5087945;27;37237;-49
2022/06/08 06:00:15;;;;;;;;;;;13.80;99.90;;;;;;5088558;28;37759;-58
2022/06/08 06:02:43;;;;;;;;;;;13.90;99.90;;;;;;5088552;27;35927;-57
2022/06/08 06:05:10;;;;;;;;;;;14.00;99.90;;;;;;5088313;27;37776;-58
2022/06/08 06:07:38;;;;;;;;;;;14.10;99.90;;;;;;5091655;27;36202;-58
2022/06/08 06:10:07;;;;;;;;;;;14.10;99.90;;;;;;5091221;27;37585;-58
2022/06/08 06:12:34;;;;;;;;;;;14.20;99.90;;;;;;5091440;27;33506;-57
2022/06/08 06:15:01;;;;;;;;;;;14.20;99.90;;;;;;5090603;27;37820;-58
2022/06/08 06:17:29;;;;;;;;;;;14.30;99.90;;;;;;5089999;27;38149;-58
2022/06/08 06:19:56;;;;;;;;;;;14.40;99.90;;;;;;5090241;27;35421;-58
2022/06/08 06:22:23;;;;;;;;;;;14.40;99.90;;;;;;5090458;27;36312;-58
2022/06/08 06:24:51;;;;;;;;;;;14.60;99.90;;;;;;5090724;28;36507;-58
2022/06/08 06:27:21;;;;;;;;;;;14.70;99.90;;;;;;5091169;27;37881;-58
2022/06/08 06:29:48;;;;;;;;;;;14.90;99.90;;;;;;5090437;27;38155;-58
2022/06/08 06:32:18;;;;;;;;;;;15.00;99.90;;;;;;5090128;27;37285;-58
2022/06/08 06:34:45;;;;;;;;;;;15.00;99.90;;;;;;5090866;27;38307;-57
2022/06/08 06:37:13;;;;;;;;;;;15.10;99.90;;;;;;5091290;28;36075;-58
2022/06/08 06:39:40;;;;;;;;;;;15.20;99.90;;;;;;5089954;27;36990;-57
2022/06/08 06:42:13;;;;;;;;;;;15.20;99.90;;;;;;5090589;27;35223;-57
2022/06/08 06:44:41;;;;;;;;;;;15.30;99.90;;;;;;5090952;27;38841;-58
2022/06/08 06:47:08;;;;;;;;;;;15.40;99.90;;;;;;5091254;27;37409;-58
2022/06/08 06:49:35;;;;;;;;;;;15.50;99.90;;;;;;5089669;27;35772;-57
2022/06/08 06:52:03;;;;;;;;;;;15.70;99.90;;;;;;5090053;27;38164;-57
2022/06/08 06:54:31;;;;;;;;;;;15.90;99.90;;;;;;5090965;27;38563;-58
2022/06/08 06:56:58;;;;;;;;;;;16.10;99.90;;;;;;5089694;27;38132;-58
2022/06/08 06:59:25;;;;;;;;;;;16.20;99.90;;;;;;5091105;27;36993;-57
2022/06/08 07:01:53;;;;;;;;;;;16.20;99.90;;;;;;5090928;27;36082;-57
2022/06/08 07:04:23;;;;;;;;;;;16.20;99.90;;;;;;5089114;27;37548;-57
2022/06/08 07:06:50;;;;;;;;;;;16.30;99.90;;;;;;5089852;27;37605;-59
2022/06/08 07:09:19;;;;;;;;;;;16.50;99.90;;;;;;5083289;27;36850;-57
2022/06/08 07:11:46;;;;;;;;;;;16.70;99.90;;;;;;5087430;27;36198;-58
2022/06/08 07:14:17;;;;;;;;;;;16.70;99.90;;;;;;5088371;28;40573;-58
2022/06/08 07:16:45;;;;;;;;;;;16.60;99.90;;;;;;5088046;27;37646;-57
2022/06/08 07:19:14;;;;;;;;;;;16.60;99.90;;;;;;5087633;27;36938;-57
2022/06/08 07:21:42;;;;;;;;;;;16.60;99.90;;;;;;5089221;28;36563;-57
2022/06/08 07:24:11;;;;;;;;;;;16.50;99.90;;;;;;5087727;28;38680;-58
2022/06/08 07:26:39;;;;;;;;;;;16.60;99.90;;;;;;5088846;27;37280;-58
2022/06/08 07:29:09;;;;;;;;;;;16.60;99.90;;;;;;5089389;27;36703;-57
2022/06/08 07:31:39;;;;;;;;;;;16.70;99.90;;;;;;5088630;27;36335;-58
2022/06/08 07:34:06;;;;;;;;;;;16.70;99.90;;;;;;5089539;27;37596;-58
2022/06/08 07:36:35;;;;;;;;;;;16.60;99.90;;;;;;5090164;27;36466;-57
2022/06/08 07:39:03;;;;;;;;;;;16.60;99.90;;;;;;5089097;27;36819;-58
2022/06/08 07:41:30;;;;;;;;;;;16.60;99.90;;;;;;5088779;27;35156;-58
2022/06/08 07:43:57;;;;;;;;;;;16.60;99.90;;;;;;5089753;27;38846;-58
2022/06/08 07:46:25;;;;;;;;;;;16.60;99.90;;;;;;5088632;27;38487;-58
2022/06/08 07:51:37;;;;;;;;;;;16.50;99.90;;;;;;5089636;28;36295;-59
2022/06/08 07:54:05;;;;;;;;;;;16.50;99.90;;;;;;5088337;27;37816;-58
2022/06/08 07:56:32;;;;;;;;;;;16.50;99.90;;;;;;5088125;27;40020;-57
2022/06/08 07:58:59;;;;;;;;;;;16.50;99.90;;;;;;5089144;27;36525;-57
2022/06/08 08:01:26;;;;;;;;;;;16.50;99.90;;;;;;5087917;27;35279;-57
2022/06/08 08:03:53;;;;;;;;;;;16.50;99.90;;;;;;5086747;27;37383;-58
2022/06/08 08:06:20;;;;;;;;;;;16.50;99.90;;;;;;5087688;27;37585;-57
2022/06/08 08:08:48;;;;;;;;;;;16.60;99.90;;;;;;5087767;27;35560;-57
2022/06/08 08:11:15;;;;;;;;;;;16.60;99.90;;;;;;5086604;27;35786;-58
2022/06/08 08:13:42;;;;;;;;;;;16.60;99.90;;;;;;5086603;27;37728;-57
2022/06/08 08:16:10;;;;;;;;;;;16.70;99.90;;;;;;5088140;27;38859;-58
2022/06/08 08:18:37;;;;;;;;;;;16.90;99.90;;;;;;5088860;27;36861;-58
2022/06/08 08:21:04;;;;;;;;;;;17.10;99.90;;;;;;5088931;27;37278;-57
2022/06/08 08:23:31;;;;;;;;;;;17.30;99.90;;;;;;5088044;27;37981;-57
2022/06/08 08:25:59;;;;;;;;;;;17.50;99.90;;;;;;5087917;27;38571;-58
2022/06/08 08:28:26;;;;;;;;;;;17.50;99.90;;;;;;5088702;27;37594;-57
2022/06/08 08:30:53;;;;;;;;;;;17.60;99.90;;;;;;5087311;27;36966;-57
2022/06/08 08:33:20;;;;;;;;;;;17.70;99.90;;;;;;5088400;27;37152;-58
2022/06/08 08:35:47;;;;;;;;;;;17.80;99.90;;;;;;5089615;27;39461;-58
2022/06/08 08:38:14;;;;;;;;;;;18.00;99.90;;;;;;5088655;27;36721;-58
2022/06/08 08:40:47;;;;;;;;;;;18.20;99.90;;;;;;5088973;27;38352;-59
2022/06/08 08:43:17;;;;;;;;;;;18.20;99.90;;;;;;5088770;27;38116;-58
2022/06/08 08:46:02;;;;;;;;;;;18.20;99.90;;;;;;5088718;27;37499;-58
2022/06/08 08:48:31;;;;;;;;;;;18.10;99.90;;;;;;5089325;27;35544;-58
2022/06/08 08:51:02;;;;;;;;;;;18.20;99.90;;;;;;5087720;27;37699;-58
2022/06/08 08:53:33;;;;;;;;;;;18.20;99.90;;;;;;5087712;27;36397;-58
2022/06/08 08:56:03;;;;;;;;;;;18.50;99.90;;;;;;5087799;27;36186;-58
2022/06/08 08:58:34;;;;;;;;;;;18.80;99.90;;;;;;5087580;27;36625;-58
2022/06/08 09:01:04;;;;;;;;;;;19.00;99.90;;;;;;5087468;27;37407;-58
2022/06/08 09:03:32;;;;;;;;;;;19.20;99.90;;;;;;5087630;27;37851;-58
2022/06/08 09:06:00;;;;;;;;;;;19.40;99.90;;;;;;5087455;27;38988;-58
2022/06/08 09:08:28;;;;;;;;;;;19.50;99.90;;;;;;5089847;27;37457;-58
2022/06/08 09:10:57;;;;;;;;;;;19.60;99.90;;;;;;5086999;27;37403;-58
2022/06/08 09:13:30;;;;;;;;;;;19.60;99.90;;;;;;5087040;27;37713;-58
2022/06/08 09:16:02;;;;;;;;;;;19.40;99.90;;;;;;5087155;27;36547;-58
2022/06/08 09:18:34;;;;;;;;;;;19.30;99.90;;;;;;5088051;27;35741;-59
2022/06/08 09:21:19;;;;;;;;;;;19.20;99.90;;;;;;5086023;27;35336;-58
2022/06/08 09:23:49;;;;;;;;;;;19.10;99.90;;;;;;5086242;27;40051;-58
2022/06/08 09:26:27;;;;;;;;;;;19.10;99.90;;;;;;5085371;27;38212;-58
2022/06/08 09:28:57;;;;;;;;;;;19.10;99.90;;;;;;5086269;27;36889;-59
2022/06/08 09:31:29;;;;;;;;;;;19.10;99.90;;;;;;5086458;27;36655;-59
2022/06/08 09:34:06;;;;;;;;;;;19.10;99.90;;;;;;5087217;27;37614;-57
2022/06/08 09:36:33;;;;;;;;;;;19.30;99.90;;;;;;5084801;28;37262;-58
2022/06/08 09:39:00;;;;;;;;;;;19.40;99.90;;;;;;5086917;27;37559;-58
2022/06/08 09:41:29;;;;;;;;;;;19.50;99.90;;;;;;5086581;27;35199;-58
2022/06/08 09:44:05;;;;;;;;;;;19.60;99.90;;;;;;5086701;27;38633;-58
2022/06/08 09:52:21;;;;;;;;;;;20.20;99.90;;;;;;5086784;27;29383;-58
2022/06/08 09:54:57;;;;;;;;;;;20.40;99.90;;;;;;5086037;27;37521;-59
2022/06/08 09:57:33;;;;;;;;;;;20.60;99.90;;;;;;5086585;27;36948;-58
2022/06/08 10:00:08;;;;;;;;;;;20.60;99.90;;;;;;5086196;27;36702;-58
2022/06/08 10:02:41;;;;;;;;;;;20.50;99.90;;;;;;5086343;27;36454;-59
2022/06/08 10:05:17;;;;;;;;;;;20.60;99.90;;;;;;5086977;27;38351;-57
2022/06/08 10:07:48;;;;;;;;;;;20.50;99.90;;;;;;5085847;27;37753;-59
2022/06/08 10:10:23;;;;;;;;;;;20.30;99.90;;;;;;5085353;28;37555;-58
2022/06/08 10:12:55;;;;;;;;;;;20.20;99.90;;;;;;5085882;28;36414;-58
2022/06/08 10:15:26;;;;;;;;;;;20.00;99.90;;;;;;5085783;27;38632;-58
2022/06/08 10:17:57;;;;;;;;;;;19.90;99.90;;;;;;5086052;27;37327;-58
2022/06/08 10:20:29;;;;;;;;;;;19.70;99.90;;;;;;5084784;27;35541;-58
2022/06/08 10:22:57;;;;;;;;;;;19.70;99.90;;;;;;5085543;27;36983;-58
2022/06/08 10:25:27;;;;;;;;;;;19.80;99.90;;;;;;5085372;28;38388;-58
2022/06/08 10:27:55;;;;;;;;;;;20.00;99.90;;;;;;5086359;28;37561;-58
2022/06/08 10:30:26;;;;;;;;;;;20.20;99.90;;;;;;5086330;27;37362;-58
2022/06/08 10:32:57;;;;;;;;;;;20.40;99.90;;;;;;5085958;27;36177;-59
2022/06/08 10:35:27;;;;;;;;;;;20.70;99.90;;;;;;5084738;27;36536;-56
2022/06/08 10:37:54;;;;;;;;;;;20.80;99.90;;;;;;5085244;27;37778;-56
2022/06/08 10:40:23;;;;;;;;;;;20.90;99.90;;;;;;5085932;27;35538;-56
2022/06/08 10:42:51;;;;;;;;;;;20.90;99.90;;;;;;5085147;27;36736;-56
2022/06/08 10:45:31;;;;;;;;;;;20.90;99.90;;;;;;5086107;27;38388;-56
2022/06/08 10:48:01;;;;;;;;;;;20.90;99.90;;;;;;5086297;27;37721;-56
2022/06/08 10:50:30;;;;;;;;;;;20.80;99.90;;;;;;5086015;27;38190;-55
2022/06/08 10:54:53;;;;;;;;;;;20.80;99.90;;;;;;5086974;27;36272;-56
2022/06/08 10:55:46;;;;;;;;;;;20.70;99.90;;;;;;5089302;27;38223;-56
2022/06/08 10:58:17;;;;;;;;;;;20.60;99.90;;;;;;5090594;28;36210;-57
2022/06/08 11:01:04;;;;;;;;;;;20.50;99.90;;;;;;5090002;27;38153;-59
2022/06/08 11:03:36;;;;;;;;;;;20.30;99.90;;;;;;5090332;27;35241;-58
2022/06/08 11:06:08;;;;;;;;;;;20.20;99.90;;;;;;5090086;27;36953;-58
2022/06/08 11:08:51;;;;;;;;;;;20.00;99.90;;;;;;5089902;27;37368;-58
2022/06/08 11:11:37;;;;;;;;;;;20.00;99.90;;;;;;5090268;27;35479;-58
2022/06/08 11:14:24;;;;;;;;;;;19.90;99.90;;;;;;5089375;27;37328;-58
2022/06/08 11:16:53;;;;;;;;;;;19.80;99.90;;;;;;5089691;27;37914;-58
2022/06/08 11:19:23;;;;;;;;;;;19.60;99.90;;;;;;5090093;28;37632;-58
2022/06/08 11:21:51;;;;;;;;;;;19.50;99.90;;;;;;5089022;27;36637;-59
2022/06/08 11:24:23;;;;;;;;;;;19.50;99.90;;;;;;5087139;27;37832;-58
2022/06/08 11:26:53;;;;;;;;;;;19.40;99.90;;;;;;5089708;28;37196;-58
2022/06/08 11:29:47;;;;;;;;;;;19.30;99.90;;;;;;5088606;27;38718;-58
2022/06/08 11:32:22;;;;;;;;;;;19.10;99.90;;;;;;5062573;27;37896;-58
2022/06/08 11:34:56;;;;;;;;;;;18.90;99.90;;;;;;5088254;27;37725;-58
2022/06/08 11:37:31;;;;;;;;;;;18.80;99.90;;;;;;5090141;27;38331;-58
2022/06/08 11:40:01;;;;;;;;;;;18.70;99.90;;;;;;5088795;27;37489;-58
2022/06/08 11:42:30;;;;;;;;;;;18.60;99.90;;;;;;5086192;27;37330;-58
2022/06/08 11:44:58;;;;;;;;;;;18.60;99.90;;;;;;5084348;27;37281;-58
2022/06/08 11:47:28;;;;;;;;;;;18.60;99.90;;;;;;5086682;27;37795;-58
2022/06/08 11:49:58;;;;;;;;;;;18.50;99.90;;;;;;5085058;27;39930;-58
2022/06/08 11:52:27;;;;;;;;;;;18.40;99.90;;;;;;5085525;27;38792;-58
2022/06/08 11:55:11;;;;;;;;;;;18.40;99.90;;;;;;5086151;27;36906;-58
2022/06/08 11:57:42;;;;;;;;;;;18.30;99.90;;;;;;5086114;27;38482;-58
2022/06/08 12:00:19;;;;;;;;;;;18.30;99.90;;;;;;5085245;27;38517;-58
2022/06/08 12:02:48;;;;;;;;;;;18.20;99.90;;;;;;5086458;27;36570;-58
2022/06/08 12:05:20;;;;;;;;;;;18.20;99.90;;;;;;5088261;27;36287;-58
2022/06/08 12:07:51;;;;;;;;;;;18.20;99.90;;;;;;5087038;27;37670;-58
2022/06/08 12:10:21;;;;;;;;;;;18.20;99.90;;;;;;5087960;28;37321;-58
2022/06/08 12:12:48;;;;;;;;;;;18.20;99.90;;;;;;5087393;27;36893;-58
2022/06/08 12:15:25;;;;;;;;;;;18.20;99.90;;;;;;5087409;27;35238;-58
2022/06/08 12:17:52;;;;;;;;;;;18.20;99.90;;;;;;5088753;28;36595;-58
2022/06/08 12:20:31;;;;;;;;;;;18.30;99.90;;;;;;5088488;27;38367;-58
2022/06/08 12:23:00;;;;;;;;;;;18.40;99.90;;;;;;5088489;28;35987;-58
2022/06/08 12:25:28;;;;;;;;;;;18.40;99.90;;;;;;5088324;28;36768;-58
2022/06/08 12:27:56;;;;;;;;;;;18.50;99.90;;;;;;5087958;27;36453;-58
2022/06/08 12:30:25;;;;;;;;;;;18.60;99.90;;;;;;5086066;27;36200;-58
2022/06/08 12:32:53;;;;;;;;;;;18.70;99.90;;;;;;5086158;27;37805;-57
2022/06/08 12:35:24;;;;;;;;;;;18.90;99.90;;;;;;5087124;27;35233;-59
2022/06/08 12:38:04;;;;;;;;;;;19.00;99.90;;;;;;5085955;27;37594;-58
2022/06/08 12:40:33;;;;;;;;;;;19.00;99.90;;;;;;5086221;27;38608;-59
2022/06/08 12:43:12;;;;;;;;;;;18.90;99.90;;;;;;5088872;27;36363;-58
2022/06/08 12:45:40;;;;;;;;;;;18.90;99.90;;;;;;5087471;27;37098;-58
2022/06/08 12:48:21;;;;;;;;;;;18.80;99.90;;;;;;5087460;28;38426;-58
2022/06/08 12:50:49;;;;;;;;;;;18.70;99.90;;;;;;5087607;27;39332;-58
2022/06/08 12:53:19;;;;;;;;;;;18.50;99.90;;;;;;5086550;27;36560;-56
2022/06/08 12:55:46;;;;;;;;;;;18.50;99.90;;;;;;5086943;27;36962;-55
2022/06/08 12:58:13;;;;;;;;;;;18.40;99.90;;;;;;5086392;27;39683;-56
2022/06/08 13:00:47;;;;;;;;;;;18.30;99.90;;;;;;5086856;27;37643;-55
2022/06/08 13:03:16;;;;;;;;;;;18.20;99.90;;;;;;5086686;27;37828;-55
2022/06/08 13:05:43;;;;;;;;;;;18.20;99.90;;;;;;5087122;27;36539;-55
2022/06/08 13:08:17;;;;;;;;;;;18.10;99.90;;;;;;5087168;27;36597;-55
2022/06/08 13:10:45;;;;;;;;;;;18.10;99.90;;;;;;5086878;27;35956;-55
2022/06/08 13:13:21;;;;;;;;;;;18.00;99.90;;;;;;5087849;27;40716;-56
2022/06/08 13:15:48;;;;;;;;;;;18.00;99.90;;;;;;5086415;27;35057;-55
2022/06/08 13:18:16;;;;;;;;;;;17.90;99.90;;;;;;5086746;27;37731;-55
2022/06/08 13:20:44;;;;;;;;;;;18.00;99.90;;;;;;5086602;27;38847;-55
2022/06/08 13:23:11;;;;;;;;;;;17.90;99.90;;;;;;5086386;27;37127;-55
2022/06/08 13:25:41;;;;;;;;;;;17.90;99.90;;;;;;5085138;27;35269;-56
2022/06/08 13:28:13;;;;;;;;;;;17.90;99.90;;;;;;5086782;27;38016;-56
2022/06/08 13:30:40;;;;;;;;;;;17.80;99.90;;;;;;5086988;27;39036;-55
2022/06/08 13:33:56;;;;;;;;;;;17.80;99.90;;;;;;5086051;27;35751;-55
2022/06/08 13:35:55;;;;;;;;;;;17.80;99.90;;;;;;5084393;27;38269;-55
2022/06/08 13:38:22;;;;;;;;;;;17.70;99.90;;;;;;5087416;28;39230;-56
2022/06/08 13:40:53;;;;;;;;;;;17.70;99.90;;;;;;5087687;27;37389;-55
2022/06/08 13:43:20;;;;;;;;;;;17.70;99.90;;;;;;5086902;27;37035;-55
2022/06/08 13:45:50;;;;;;;;;;;17.70;99.90;;;;;;5087919;27;35378;-55
2022/06/08 13:48:19;;;;;;;;;;;17.70;99.90;;;;;;5087723;27;38528;-55
2022/06/08 13:50:48;;;;;;;;;;;17.70;99.90;;;;;;5086887;27;37187;-55
2022/06/08 13:53:17;;;;;;;;;;;17.70;99.90;;;;;;5087163;27;36704;-55
2022/06/08 13:55:46;;;;;;;;;;;17.70;99.90;;;;;;5085402;27;37742;-55
2022/06/08 13:58:15;;;;;;;;;;;17.70;99.90;;;;;;5087584;27;36492;-55
2022/06/08 14:00:44;;;;;;;;;;;17.70;99.90;;;;;;5087252;27;38181;-55
2022/06/08 14:03:14;;;;;;;;;;;17.70;99.90;;;;;;5082386;27;36848;-56
2022/06/08 14:13:59;;;;;;;;;;;17.60;99.90;;;;;;5085394;27;38203;-55
2022/06/08 14:16:28;;;;;;;;;;;17.60;99.90;;;;;;5085265;27;37009;-55
2022/06/08 14:18:56;;;;;;;;;;;17.70;99.90;;;;;;5086023;27;37656;-55
2022/06/08 14:21:24;;;;;;;;;;;17.70;99.90;;;;;;5086099;27;36847;-55
2022/06/08 14:23:54;;;;;;;;;;;17.60;99.90;;;;;;5084334;27;37854;-55
2022/06/08 14:26:22;;;;;;;;;;;17.60;99.90;;;;;;5085278;27;34956;-56
2022/06/08 14:28:51;;;;;;;;;;;17.70;99.90;;;;;;5089915;27;36696;-56
2022/06/08 14:31:26;;;;;;;;;;;17.70;99.90;;;;;;5090420;27;36346;-55
2022/06/08 14:33:53;;;;;;;;;;;17.70;99.90;;;;;;5088528;27;36770;-55
2022/06/08 14:36:23;;;;;;;;;;;17.70;99.90;;;;;;5089096;27;38798;-56
2022/06/08 14:38:50;;;;;;;;;;;17.70;99.90;;;;;;5088677;27;36883;-55
2022/06/08 14:41:17;;;;;;;;;;;17.70;99.90;;;;;;5089667;27;37834;-45
2022/06/08 14:43:44;;;;;;;;;;;17.70;99.90;;;;;;5089458;27;38171;-46
2022/06/08 14:46:13;;;;;;;;;;;17.70;99.90;;;;;;5087590;27;36547;-49
2022/06/08 14:48:43;;;;;;;;;;;17.70;99.90;;;;;;5088339;27;36380;-51
2022/06/08 14:51:11;;;;;;;;;;;17.70;99.90;;;;;;5089162;27;37111;-51